createdAt,value
2023-02-06T00:01:50.845Z,81.50
2023-02-06T00:04:17.750Z,81.50
2023-02-06T00:06:44.744Z,81.60
2023-02-06T00:09:11.681Z,81.60
2023-02-06T00:11:38.623Z,81.70
2023-02-06T00:14:07.029Z,81.60
2023-02-06T00:16:34.293Z,81.60
2023-02-06T00:19:01.419Z,81.80
2023-02-06T00:21:28.784Z,81.90
2023-02-06T00:23:56.945Z,82.00
2023-02-06T00:26:24.334Z,82.00
2023-02-06T00:28:51.306Z,82.70
2023-02-06T00:31:18.360Z,82.30
2023-02-06T00:33:45.288Z,82.30
2023-02-06T00:36:12.211Z,82.30
2023-02-06T00:38:39.101Z,83.00
2023-02-06T00:41:06.028Z,82.90
2023-02-06T00:43:33.119Z,82.40
2023-02-06T00:46:00.129Z,82.40
2023-02-06T00:48:27.197Z,82.50
2023-02-06T00:50:54.577Z,82.50
2023-02-06T00:53:21.373Z,82.50
2023-02-06T00:55:48.292Z,82.50
2023-02-06T00:58:15.192Z,82.50
2023-02-06T01:00:43.360Z,82.60
2023-02-06T01:03:10.211Z,82.60
2023-02-06T01:05:37.442Z,82.60
2023-02-06T01:08:04.794Z,82.70
2023-02-06T01:10:32.468Z,82.80
2023-02-06T01:12:59.999Z,82.70
2023-02-06T01:15:26.758Z,82.80
2023-02-06T01:17:53.503Z,82.90
2023-02-06T01:20:21.759Z,83.00
2023-02-06T01:22:48.735Z,82.90
2023-02-06T01:25:16.011Z,82.80
2023-02-06T01:27:43.000Z,82.90
2023-02-06T01:30:11.112Z,82.90
2023-02-06T01:32:38.839Z,82.80
2023-02-06T01:35:07.057Z,82.90
2023-02-06T01:37:34.277Z,82.90
2023-02-06T01:40:01.066Z,83.00
2023-02-06T01:42:27.930Z,83.20
2023-02-06T01:45:25.848Z,83.20
2023-02-06T01:47:57.824Z,83.40
2023-02-06T01:50:24.643Z,83.20
2023-02-06T01:52:51.492Z,83.80
2023-02-06T01:55:18.364Z,83.30
2023-02-06T01:57:45.170Z,83.30
2023-02-06T02:00:12.402Z,83.40
2023-02-06T02:02:44.007Z,83.40
2023-02-06T02:05:10.914Z,83.50
2023-02-06T02:07:41.381Z,83.50
2023-02-06T02:10:08.339Z,83.60
2023-02-06T02:12:35.205Z,83.60
2023-02-06T02:15:01.957Z,83.60
2023-02-06T02:17:59.253Z,83.60
2023-02-06T02:20:41.792Z,83.70
2023-02-06T02:23:26.123Z,83.90
2023-02-06T02:25:55.800Z,83.90
2023-02-06T02:28:42.471Z,83.80
2023-02-06T02:31:48.537Z,83.90
2023-02-06T02:34:52.932Z,84.00
2023-02-06T02:37:35.759Z,84.00
2023-02-06T02:40:41.543Z,83.80
2023-02-06T02:43:35.115Z,84.00
2023-02-06T02:46:31.653Z,84.00
2023-02-06T02:49:17.297Z,84.10
2023-02-06T02:51:44.220Z,83.80
2023-02-06T02:54:12.065Z,83.80
2023-02-06T02:56:38.960Z,83.90
2023-02-06T02:59:15.493Z,83.80
2023-02-06T03:01:50.296Z,84.10
2023-02-06T03:04:35.305Z,84.70
2023-02-06T03:07:09.510Z,84.20
2023-02-06T03:10:02.690Z,84.70
2023-02-06T03:12:39.939Z,84.20
2023-02-06T03:15:31.458Z,84.20
2023-02-06T03:18:16.227Z,84.90
2023-02-06T03:20:44.461Z,84.10
2023-02-06T03:23:29.068Z,84.00
2023-02-06T03:25:56.318Z,84.20
2023-02-06T03:28:26.147Z,84.20
2023-02-06T03:30:54.051Z,84.20
2023-02-06T03:33:23.223Z,84.20
2023-02-06T03:35:50.047Z,84.20
2023-02-06T03:38:16.830Z,84.40
2023-02-06T03:40:44.329Z,84.50
2023-02-06T03:43:12.908Z,84.50
2023-02-06T03:45:41.270Z,84.40
2023-02-06T03:48:10.906Z,84.30
2023-02-06T03:50:38.493Z,84.40
2023-02-06T03:53:05.379Z,85.00
2023-02-06T03:55:32.259Z,84.60
2023-02-06T03:58:01.844Z,84.60
2023-02-06T04:00:30.128Z,85.10
2023-02-06T04:02:56.989Z,84.70
2023-02-06T04:05:23.927Z,84.70
2023-02-06T04:07:52.639Z,84.80
2023-02-06T04:10:19.663Z,84.90
2023-02-06T04:12:46.399Z,84.90
2023-02-06T04:15:13.164Z,85.00
2023-02-06T04:17:53.512Z,85.00
2023-02-06T04:20:24.647Z,85.00
2023-02-06T04:22:51.385Z,85.00
2023-02-06T04:25:19.150Z,85.00
2023-02-06T04:27:46.013Z,85.10
2023-02-06T04:30:13.327Z,85.10
2023-02-06T04:32:40.067Z,85.20
2023-02-06T04:35:07.020Z,85.30
2023-02-06T04:37:33.853Z,85.30
2023-02-06T04:40:00.727Z,85.30
2023-02-06T04:42:27.555Z,85.40
2023-02-06T04:44:54.438Z,85.30
2023-02-06T04:47:21.232Z,85.30
2023-02-06T04:49:48.008Z,85.30
2023-02-06T04:52:14.802Z,85.30
2023-02-06T04:54:41.541Z,85.40
2023-02-06T04:57:08.319Z,85.40
2023-02-06T04:59:35.107Z,85.50
2023-02-06T05:02:01.896Z,86.10
2023-02-06T05:04:30.164Z,85.60
2023-02-06T05:06:57.007Z,85.70
2023-02-06T05:09:23.746Z,85.70
2023-02-06T05:11:50.602Z,85.60
2023-02-06T05:14:17.409Z,85.60
2023-02-06T05:16:44.193Z,85.60
2023-02-06T05:19:10.983Z,85.60
2023-02-06T05:21:37.819Z,85.40
2023-02-06T05:24:04.684Z,85.50
2023-02-06T05:26:31.505Z,85.70
2023-02-06T05:28:58.281Z,85.80
2023-02-06T05:31:25.115Z,86.40
2023-02-06T05:33:52.746Z,85.80
2023-02-06T05:36:19.793Z,85.90
2023-02-06T05:38:47.086Z,86.40
2023-02-06T05:41:14.116Z,85.90
2023-02-06T05:43:41.012Z,86.00
2023-02-06T05:46:07.943Z,86.00
2023-02-06T05:48:35.231Z,86.00
2023-02-06T05:51:03.179Z,86.10
2023-02-06T05:53:29.975Z,86.20
2023-02-06T05:55:56.892Z,86.20
2023-02-06T05:58:23.743Z,86.20
2023-02-06T06:00:50.545Z,86.20
2023-02-06T06:03:17.292Z,86.30
2023-02-06T06:05:44.068Z,86.20
2023-02-06T06:08:10.794Z,86.40
2023-02-06T06:10:37.656Z,86.40
2023-02-06T06:13:04.428Z,86.50
2023-02-06T06:15:31.234Z,86.70
2023-02-06T06:17:58.002Z,86.70
2023-02-06T06:20:24.739Z,86.70
2023-02-06T06:22:51.800Z,86.70
2023-02-06T06:25:18.719Z,86.90
2023-02-06T06:27:45.811Z,86.70
2023-02-06T06:30:12.954Z,86.60
2023-02-06T06:32:39.673Z,86.60
2023-02-06T06:35:06.601Z,86.70
2023-02-06T06:37:33.313Z,86.80
2023-02-06T06:40:00.154Z,87.20
2023-02-06T06:42:26.930Z,86.70
2023-02-06T06:44:53.711Z,86.60
2023-02-06T06:47:20.502Z,86.60
2023-02-06T06:49:47.257Z,86.60
2023-02-06T06:52:24.531Z,86.70
2023-02-06T06:54:52.477Z,86.80
2023-02-06T06:57:19.950Z,87.00
2023-02-06T06:59:46.786Z,87.20
2023-02-06T07:02:13.812Z,87.80
2023-02-06T07:04:40.600Z,87.40
2023-02-06T07:07:07.493Z,87.40
2023-02-06T07:09:34.349Z,87.50
2023-02-06T07:12:01.225Z,88.00
2023-02-06T07:14:28.037Z,87.60
2023-02-06T07:16:56.174Z,87.60
2023-02-06T07:19:23.072Z,87.70
2023-02-06T07:21:49.835Z,88.20
2023-02-06T07:24:16.662Z,87.60
2023-02-06T07:26:43.545Z,87.60
2023-02-06T07:29:10.420Z,88.10
2023-02-06T07:31:37.256Z,87.70
2023-02-06T07:34:04.191Z,87.70
2023-02-06T07:36:31.054Z,87.80
2023-02-06T07:38:57.821Z,88.00
2023-02-06T07:41:24.562Z,88.30
2023-02-06T07:43:51.326Z,88.30
2023-02-06T07:46:18.298Z,88.30
2023-02-06T07:48:45.189Z,88.50
2023-02-06T07:51:12.047Z,88.30
2023-02-06T07:53:38.950Z,88.40
2023-02-06T07:56:17.080Z,88.40
2023-02-06T07:58:44.038Z,88.70
2023-02-06T08:01:10.934Z,89.10
2023-02-06T08:03:37.740Z,89.10
2023-02-06T08:06:09.274Z,88.80
2023-02-06T08:08:36.008Z,88.50
2023-02-06T08:11:07.305Z,88.70
2023-02-06T08:13:35.131Z,88.00
2023-02-06T08:16:06.066Z,87.80
2023-02-06T08:18:33.008Z,87.80
2023-02-06T08:21:07.642Z,87.70
2023-02-06T08:23:34.520Z,87.80
2023-02-06T08:26:05.773Z,87.80
2023-02-06T08:28:32.668Z,87.70
2023-02-06T08:30:59.590Z,87.70
2023-02-06T08:33:26.391Z,87.80
2023-02-06T08:35:54.060Z,87.80
2023-02-06T08:38:20.823Z,87.80
2023-02-06T08:40:47.556Z,87.80
2023-02-06T08:43:14.492Z,87.90
2023-02-06T08:45:41.268Z,87.80
2023-02-06T08:48:08.084Z,87.70
2023-02-06T08:50:35.194Z,87.60
2023-02-06T08:53:03.161Z,87.60
2023-02-06T08:55:29.972Z,87.60
2023-02-06T08:57:57.031Z,87.80
2023-02-06T09:00:23.848Z,87.90
2023-02-06T09:02:53.115Z,88.00
2023-02-06T09:05:20.592Z,88.00
2023-02-06T09:07:47.540Z,87.90
2023-02-06T09:10:26.825Z,87.80
2023-02-06T09:12:54.917Z,87.70
2023-02-06T09:15:21.764Z,87.50
2023-02-06T09:17:48.573Z,87.40
2023-02-06T09:20:15.423Z,87.20
2023-02-06T09:22:44.469Z,87.00
2023-02-06T09:25:13.932Z,86.80
2023-02-06T09:27:43.593Z,86.50
2023-02-06T09:30:31.506Z,86.20
2023-02-06T09:32:58.378Z,86.10
2023-02-06T09:35:25.152Z,86.20
2023-02-06T09:37:52.030Z,85.50
2023-02-06T09:40:24.405Z,85.30
2023-02-06T09:42:51.240Z,85.00
2023-02-06T09:45:20.290Z,84.70
2023-02-06T09:47:53.203Z,84.50
2023-02-06T09:50:24.449Z,84.30
2023-02-06T09:53:06.410Z,84.00
2023-02-06T09:55:39.036Z,83.80
2023-02-06T09:58:08.830Z,83.70
2023-02-06T10:00:38.614Z,83.40
2023-02-06T10:03:30.253Z,82.90
2023-02-06T10:06:20.381Z,82.80
2023-02-06T10:08:51.828Z,82.80
2023-02-06T10:11:50.970Z,82.50
2023-02-06T10:14:32.162Z,82.30
2023-02-06T10:17:11.436Z,82.70
2023-02-06T10:19:46.675Z,81.60
2023-02-06T10:22:27.952Z,81.10
2023-02-06T10:25:01.536Z,80.60
2023-02-06T10:27:28.305Z,80.20
2023-02-06T10:29:55.092Z,80.00
2023-02-06T10:32:42.159Z,79.70
2023-02-06T10:35:36.593Z,79.40
2023-02-06T10:38:26.769Z,78.90
2023-02-06T10:41:27.226Z,78.70
2023-02-06T10:44:15.985Z,78.60
2023-02-06T10:46:50.864Z,78.30
2023-02-06T10:49:27.708Z,78.00
2023-02-06T10:52:22.014Z,77.70
2023-02-06T10:55:11.709Z,77.20
2023-02-06T10:57:38.546Z,76.80
2023-02-06T11:00:19.642Z,76.30
2023-02-06T11:03:06.560Z,75.40
2023-02-06T11:05:34.343Z,74.50
2023-02-06T11:08:11.669Z,74.20
2023-02-06T11:10:38.917Z,73.60
2023-02-06T11:13:19.220Z,73.40
2023-02-06T11:16:01.103Z,72.70
2023-02-06T11:18:33.710Z,72.30
2023-02-06T11:21:00.712Z,72.30
2023-02-06T11:23:29.274Z,72.10
2023-02-06T11:26:18.330Z,71.10
2023-02-06T11:28:53.768Z,70.80
2023-02-06T11:31:21.766Z,70.10
2023-02-06T11:33:54.187Z,69.40
2023-02-06T11:36:32.167Z,68.60
2023-02-06T11:39:09.690Z,68.00
2023-02-06T11:41:36.460Z,67.40
2023-02-06T11:44:06.548Z,66.90
2023-02-06T11:46:35.415Z,66.10
2023-02-06T11:49:22.306Z,65.50
2023-02-06T11:51:59.084Z,64.50
2023-02-06T11:54:29.067Z,63.80
2023-02-06T11:57:08.120Z,63.20
2023-02-06T11:59:49.077Z,62.20
2023-02-06T12:02:28.533Z,61.50
2023-02-06T12:05:05.587Z,61.50
2023-02-06T12:07:44.344Z,60.80
2023-02-06T12:10:19.143Z,60.90
2023-02-06T12:12:55.435Z,59.60
2023-02-06T12:15:45.965Z,59.70
2023-02-06T12:18:37.851Z,58.60
2023-02-06T12:21:13.800Z,57.60
2023-02-06T12:23:49.413Z,56.90
2023-02-06T12:26:20.739Z,56.50
2023-02-06T12:28:54.086Z,56.10
2023-02-06T12:32:05.046Z,55.60
2023-02-06T12:34:49.620Z,54.80
2023-02-06T12:37:21.449Z,54.60
2023-02-06T12:39:48.403Z,54.00
2023-02-06T12:42:37.047Z,53.60
2023-02-06T12:45:07.502Z,52.90
2023-02-06T12:47:46.540Z,52.80
2023-02-06T12:50:28.093Z,52.00
2023-02-06T12:53:04.864Z,51.40
2023-02-06T12:55:35.705Z,50.70
2023-02-06T12:58:02.884Z,50.00
2023-02-06T13:01:00.709Z,49.60
2023-02-06T13:03:33.123Z,48.70
2023-02-06T13:06:12.596Z,48.30
2023-02-06T13:08:51.514Z,47.30
2023-02-06T13:11:21.286Z,46.40
2023-02-06T13:13:49.555Z,45.20
2023-02-06T13:16:16.405Z,44.70
2023-02-06T13:18:45.484Z,43.90
2023-02-06T13:21:19.499Z,43.30
2023-02-06T13:24:10.411Z,42.70
2023-02-06T13:26:47.808Z,42.50
2023-02-06T13:29:27.161Z,42.20
2023-02-06T13:32:12.438Z,41.50
2023-02-06T13:35:04.003Z,40.80
2023-02-06T13:37:32.674Z,40.70
2023-02-06T13:40:30.635Z,40.70
2023-02-06T13:43:10.122Z,40.00
2023-02-06T13:45:46.040Z,39.90
2023-02-06T13:48:28.133Z,39.80
2023-02-06T13:51:22.986Z,39.70
2023-02-06T13:54:14.631Z,39.30
2023-02-06T13:56:45.481Z,38.70
2023-02-06T13:59:27.705Z,38.60
2023-02-06T14:01:54.714Z,37.80
2023-02-06T14:04:26.125Z,37.80
2023-02-06T14:07:11.152Z,37.20
2023-02-06T14:09:49.923Z,36.80
2023-02-06T14:12:31.321Z,36.40
2023-02-06T14:15:12.943Z,35.60
2023-02-06T14:17:58.522Z,35.20
2023-02-06T14:20:58.224Z,35.30
2023-02-06T14:23:37.006Z,35.00
2023-02-06T14:26:22.388Z,35.30
2023-02-06T14:28:52.174Z,34.90
2023-02-06T14:31:38.423Z,35.00
2023-02-06T14:34:05.221Z,34.30
2023-02-06T14:36:44.020Z,34.70
2023-02-06T14:39:48.687Z,34.60
2023-02-06T14:42:27.648Z,34.60
2023-02-06T14:45:28.434Z,34.40
2023-02-06T14:47:56.745Z,35.10
2023-02-06T14:50:31.753Z,34.60
2023-02-06T14:53:28.746Z,34.10
2023-02-06T14:56:09.039Z,34.50
2023-02-06T14:58:36.030Z,33.70
2023-02-06T15:01:32.761Z,33.80
2023-02-06T15:04:16.858Z,33.60
2023-02-06T15:06:50.285Z,33.40
2023-02-06T15:09:27.729Z,33.00
2023-02-06T15:11:56.524Z,32.50
2023-02-06T15:14:28.715Z,33.00
2023-02-06T15:17:00.115Z,32.30
2023-02-06T15:19:31.535Z,33.10
2023-02-06T15:22:01.097Z,32.50
2023-02-06T15:24:34.609Z,32.30
2023-02-06T15:27:09.891Z,32.30
2023-02-06T15:29:37.191Z,32.30
2023-02-06T15:32:08.492Z,32.50
2023-02-06T15:34:35.504Z,32.40
2023-02-06T15:37:20.228Z,33.00
2023-02-06T15:39:47.147Z,33.10
2023-02-06T15:42:13.878Z,34.00
2023-02-06T15:44:40.610Z,34.40
2023-02-06T15:47:11.035Z,35.10
2023-02-06T15:49:46.335Z,35.60
2023-02-06T15:52:14.410Z,36.00
2023-02-06T15:54:42.669Z,36.40
2023-02-06T15:57:26.461Z,37.30
2023-02-06T15:59:53.219Z,37.30
2023-02-06T16:02:26.342Z,37.70
2023-02-06T16:04:53.491Z,37.90
2023-02-06T16:07:22.610Z,38.00
2023-02-06T16:10:13.080Z,38.00
2023-02-06T16:12:41.206Z,38.00
2023-02-06T16:15:40.766Z,38.20
2023-02-06T16:18:30.460Z,38.30
2023-02-06T16:21:16.455Z,38.50
2023-02-06T16:23:47.060Z,39.10
2023-02-06T16:26:27.507Z,38.90
2023-02-06T16:29:09.628Z,39.30
2023-02-06T16:31:42.367Z,39.60
2023-02-06T16:34:31.121Z,39.70
2023-02-06T16:36:58.013Z,40.00
2023-02-06T16:39:24.749Z,40.20
2023-02-06T16:41:52.125Z,40.50
2023-02-06T16:44:19.325Z,40.70
2023-02-06T16:46:48.939Z,41.00
2023-02-06T16:49:19.289Z,41.40
2023-02-06T16:51:46.659Z,42.00
2023-02-06T16:54:28.161Z,42.50
2023-02-06T16:56:55.718Z,43.10
2023-02-06T16:59:22.544Z,43.40
2023-02-06T17:01:49.338Z,43.80
2023-02-06T17:04:16.172Z,44.10
2023-02-06T17:06:43.058Z,44.30
2023-02-06T17:09:12.285Z,44.40
2023-02-06T17:11:39.139Z,44.50
2023-02-06T17:14:06.061Z,44.60
2023-02-06T17:16:33.682Z,44.90
2023-02-06T17:19:00.624Z,45.20
2023-02-06T17:21:29.719Z,45.60
2023-02-06T17:23:56.599Z,46.00
2023-02-06T17:26:23.674Z,46.40
2023-02-06T17:28:50.606Z,46.80
2023-02-06T17:31:17.589Z,47.30
2023-02-06T17:33:44.493Z,48.70
2023-02-06T17:36:17.269Z,49.70
2023-02-06T17:38:44.424Z,51.00
2023-02-06T17:41:11.216Z,50.30
2023-02-06T17:43:38.022Z,50.70
2023-02-06T17:46:05.702Z,50.90
2023-02-06T17:48:36.409Z,51.50
2023-02-06T17:51:05.019Z,52.50
2023-02-06T17:53:31.807Z,53.00
2023-02-06T17:56:06.558Z,52.90
2023-02-06T17:58:33.544Z,53.00
2023-02-06T18:01:00.425Z,52.90
2023-02-06T18:03:27.512Z,53.10
2023-02-06T18:05:58.572Z,54.00
2023-02-06T18:08:25.504Z,54.50
2023-02-06T18:10:52.312Z,54.30
2023-02-06T18:13:20.549Z,55.60
2023-02-06T18:15:55.258Z,55.50
2023-02-06T18:18:22.662Z,55.70
2023-02-06T18:20:49.504Z,55.90
2023-02-06T18:23:16.636Z,57.10
2023-02-06T18:25:44.264Z,56.80
2023-02-06T18:28:14.008Z,57.60
2023-02-06T18:30:41.876Z,57.80
2023-02-06T18:33:09.072Z,58.00
2023-02-06T18:35:39.677Z,58.10
2023-02-06T18:38:09.772Z,58.90
2023-02-06T18:40:38.026Z,58.40
2023-02-06T18:43:05.673Z,57.60
2023-02-06T18:45:34.541Z,58.30
2023-02-06T18:48:03.625Z,58.10
2023-02-06T18:50:30.721Z,58.50
2023-02-06T18:52:57.704Z,59.00
2023-02-06T18:55:24.966Z,59.70
2023-02-06T18:57:52.002Z,59.30
2023-02-06T19:00:20.811Z,59.70
2023-02-06T19:02:47.766Z,60.00
2023-02-06T19:05:14.688Z,60.30
2023-02-06T19:07:41.732Z,60.50
2023-02-06T19:10:16.053Z,60.80
2023-02-06T19:12:42.964Z,61.00
2023-02-06T19:15:10.363Z,61.20
2023-02-06T19:17:37.297Z,61.30
2023-02-06T19:20:04.643Z,61.50
2023-02-06T19:22:34.686Z,61.70
2023-02-06T19:25:02.244Z,62.10
2023-02-06T19:27:29.116Z,62.20
2023-02-06T19:29:55.897Z,62.40
2023-02-06T19:32:22.816Z,62.70
2023-02-06T19:34:49.627Z,62.90
2023-02-06T19:37:16.458Z,63.00
2023-02-06T19:39:44.420Z,63.20
2023-02-06T19:42:11.480Z,63.40
2023-02-06T19:44:38.615Z,63.60
2023-02-06T19:47:05.454Z,63.70
2023-02-06T19:49:32.242Z,63.80
2023-02-06T19:51:59.121Z,63.90
2023-02-06T19:54:26.047Z,64.10
2023-02-06T19:56:52.904Z,64.30
2023-02-06T19:59:24.799Z,64.40
2023-02-06T20:01:53.421Z,64.70
2023-02-06T20:04:21.424Z,64.90
2023-02-06T20:06:49.977Z,65.10
2023-02-06T20:09:17.244Z,65.20
2023-02-06T20:11:44.238Z,65.40
2023-02-06T20:14:12.189Z,65.70
2023-02-06T20:16:40.049Z,65.90
2023-02-06T20:19:21.510Z,66.00
2023-02-06T20:21:50.387Z,66.40
2023-02-06T20:24:20.720Z,66.20
2023-02-06T20:26:49.396Z,66.30
2023-02-06T20:29:27.004Z,66.30
2023-02-06T20:31:54.103Z,66.60
2023-02-06T20:34:22.102Z,66.40
2023-02-06T20:36:49.965Z,66.60
2023-02-06T20:39:17.116Z,66.70
2023-02-06T20:41:45.593Z,66.90
2023-02-06T20:44:13.248Z,67.20
2023-02-06T20:46:40.266Z,67.30
2023-02-06T20:49:10.735Z,67.40
2023-02-06T20:51:37.537Z,67.30
2023-02-06T20:54:04.515Z,67.30
2023-02-06T20:56:32.765Z,67.50
2023-02-06T20:59:02.838Z,67.90
2023-02-06T21:01:30.698Z,68.00
2023-02-06T21:04:03.191Z,67.90
2023-02-06T21:06:30.577Z,68.00
2023-02-06T21:09:00.010Z,67.70
2023-02-06T21:11:29.493Z,67.80
2023-02-06T21:13:57.834Z,67.90
2023-02-06T21:16:25.559Z,68.00
2023-02-06T21:18:52.631Z,68.00
2023-02-06T21:21:19.714Z,68.20
2023-02-06T21:23:46.771Z,68.30
2023-02-06T21:26:13.780Z,68.40
2023-02-06T21:28:40.968Z,68.60
2023-02-06T21:31:09.908Z,68.60
2023-02-06T21:33:36.774Z,68.90
2023-02-06T21:36:06.629Z,68.80
2023-02-06T21:38:37.140Z,68.90
2023-02-06T21:41:09.187Z,69.10
2023-02-06T21:43:36.033Z,69.30
2023-02-06T21:46:03.001Z,69.90
2023-02-06T21:48:29.986Z,69.50
2023-02-06T21:50:56.968Z,69.70
2023-02-06T21:53:23.875Z,69.80
2023-02-06T21:55:50.796Z,70.00
2023-02-06T21:58:17.592Z,70.10
2023-02-06T22:00:46.310Z,70.20
2023-02-06T22:03:13.385Z,70.30
2023-02-06T22:05:40.443Z,70.40
2023-02-06T22:08:07.379Z,70.50
2023-02-06T22:10:37.310Z,70.70
2023-02-06T22:13:04.924Z,70.90
2023-02-06T22:15:32.417Z,71.10
2023-02-06T22:18:00.037Z,71.20
2023-02-06T22:20:27.096Z,71.40
2023-02-06T22:22:55.043Z,71.50
2023-02-06T22:25:22.293Z,71.60
2023-02-06T22:27:49.259Z,71.80
2023-02-06T22:30:16.222Z,71.90
2023-02-06T22:32:43.128Z,72.00
2023-02-06T22:35:10.051Z,72.00
2023-02-06T22:37:36.817Z,72.10
2023-02-06T22:40:03.919Z,72.10
2023-02-06T22:42:30.747Z,72.30
2023-02-06T22:44:57.763Z,72.40
2023-02-06T22:47:24.750Z,72.60
2023-02-06T22:49:52.683Z,72.80
2023-02-06T22:52:45.103Z,73.00
2023-02-06T22:55:12.686Z,73.30
2023-02-06T22:57:39.555Z,73.30
2023-02-06T23:00:09.608Z,73.20
2023-02-06T23:02:38.653Z,73.10
2023-02-06T23:05:05.912Z,73.00
2023-02-06T23:07:32.744Z,72.90
2023-02-06T23:09:59.705Z,73.00
2023-02-06T23:12:26.658Z,73.30
2023-02-06T23:14:53.545Z,73.20
2023-02-06T23:17:20.471Z,73.10
2023-02-06T23:19:47.315Z,73.20
2023-02-06T23:22:14.094Z,73.30
2023-02-06T23:24:40.933Z,73.30
2023-02-06T23:27:07.840Z,73.40
2023-02-06T23:29:34.736Z,73.60
2023-02-06T23:32:01.488Z,73.70
2023-02-06T23:34:28.394Z,73.80
2023-02-06T23:36:55.293Z,73.70
2023-02-06T23:39:22.305Z,73.80
2023-02-06T23:41:49.141Z,73.90
2023-02-06T23:44:16.588Z,73.90
2023-02-06T23:46:43.568Z,73.90
2023-02-06T23:49:10.564Z,74.00
2023-02-06T23:51:38.143Z,74.80
2023-02-06T23:54:05.767Z,74.30
2023-02-06T23:56:32.736Z,74.40
2023-02-06T23:59:00.321Z,74.50
